sensor_id;sensor_type;location;lat;lon;timestamp;pressure;altitude;pressure_sealevel;temperature;humidity
51053;BME280;37093;37.716;-122.060;2022-09-06T07:01:14;99107.54;;;31.24;15.85
51053;BME280;37093;37.716;-122.060;2022-09-06T07:03:43;99109.43;;;31.51;15.08
51053;BME280;37093;37.716;-122.060;2022-09-06T07:06:11;99106.06;;;33.27;14.43
51053;BME280;37093;37.716;-122.060;2022-09-06T07:08:40;99109.50;;;34.19;14.28
51053;BME280;37093;37.716;-122.060;2022-09-06T07:11:11;99110.40;;;33.67;14.36
51053;BME280;37093;37.716;-122.060;2022-09-06T07:13:40;99111.52;;;33.78;14.55
51053;BME280;37093;37.716;-122.060;2022-09-06T07:16:12;99106.02;;;33.60;14.53
51053;BME280;37093;37.716;-122.060;2022-09-06T07:18:41;99106.69;;;33.03;14.40
51053;BME280;37093;37.716;-122.060;2022-09-06T07:21:11;99107.10;;;33.40;14.40
51053;BME280;37093;37.716;-122.060;2022-09-06T07:23:40;99105.46;;;33.36;14.46
51053;BME280;37093;37.716;-122.060;2022-09-06T07:26:13;99106.26;;;33.05;14.64
51053;BME280;37093;37.716;-122.060;2022-09-06T07:28:42;99108.42;;;33.08;14.74
51053;BME280;37093;37.716;-122.060;2022-09-06T07:31:11;99111.69;;;33.04;14.84
51053;BME280;37093;37.716;-122.060;2022-09-06T07:33:39;99111.86;;;33.26;14.89
51053;BME280;37093;37.716;-122.060;2022-09-06T07:36:08;99110.57;;;32.70;14.92
51053;BME280;37093;37.716;-122.060;2022-09-06T07:38:36;99106.72;;;33.17;14.98
51053;BME280;37093;37.716;-122.060;2022-09-06T07:41:06;99107.85;;;33.03;14.79
51053;BME280;37093;37.716;-122.060;2022-09-06T07:43:35;99107.97;;;33.05;14.92
51053;BME280;37093;37.716;-122.060;2022-09-06T07:46:06;99114.12;;;32.91;14.93
51053;BME280;37093;37.716;-122.060;2022-09-06T07:48:36;99120.68;;;32.91;15.11
51053;BME280;37093;37.716;-122.060;2022-09-06T07:51:07;99122.29;;;32.91;15.27
51053;BME280;37093;37.716;-122.060;2022-09-06T07:53:36;99123.70;;;32.85;15.09
51053;BME280;37093;37.716;-122.060;2022-09-06T07:56:07;99120.50;;;32.77;14.82
51053;BME280;37093;37.716;-122.060;2022-09-06T07:58:36;99118.16;;;32.73;14.92
51053;BME280;37093;37.716;-122.060;2022-09-06T08:01:28;99112.75;;;32.91;14.90
51053;BME280;37093;37.716;-122.060;2022-09-06T08:03:57;99110.83;;;32.64;14.85
51053;BME280;37093;37.716;-122.060;2022-09-06T08:06:27;99108.45;;;32.40;14.91
51053;BME280;37093;37.716;-122.060;2022-09-06T08:08:56;99109.73;;;32.60;14.79
51053;BME280;37093;37.716;-122.060;2022-09-06T08:11:27;99110.65;;;32.54;14.97
51053;BME280;37093;37.716;-122.060;2022-09-06T08:13:58;99109.55;;;32.44;14.73
51053;BME280;37093;37.716;-122.060;2022-09-06T08:16:28;99110.67;;;32.42;14.88
51053;BME280;37093;37.716;-122.060;2022-09-06T08:18:58;99107.47;;;32.35;14.78
51053;BME280;37093;37.716;-122.060;2022-09-06T08:21:29;99105.29;;;32.37;14.90
51053;BME280;37093;37.716;-122.060;2022-09-06T08:23:59;99104.32;;;32.22;14.74
51053;BME280;37093;37.716;-122.060;2022-09-06T08:26:29;99103.70;;;32.44;14.89
51053;BME280;37093;37.716;-122.060;2022-09-06T08:28:59;99103.82;;;32.37;14.87
51053;BME280;37093;37.716;-122.060;2022-09-06T08:31:30;99101.90;;;32.36;14.95
51053;BME280;37093;37.716;-122.060;2022-09-06T08:33:59;99102.67;;;32.36;15.16
51053;BME280;37093;37.716;-122.060;2022-09-06T08:36:29;99097.93;;;32.54;15.14
51053;BME280;37093;37.716;-122.060;2022-09-06T08:38:58;99098.91;;;31.98;15.13
51053;BME280;37093;37.716;-122.060;2022-09-06T08:41:29;99101.23;;;32.45;15.25
51053;BME280;37093;37.716;-122.060;2022-09-06T08:44:02;99100.78;;;32.20;14.93
51053;BME280;37093;37.716;-122.060;2022-09-06T08:46:35;99098.66;;;32.18;14.83
51053;BME280;37093;37.716;-122.060;2022-09-06T08:49:06;99097.56;;;32.20;14.84
51053;BME280;37093;37.716;-122.060;2022-09-06T08:52:48;99092.99;;;32.20;15.08
51053;BME280;37093;37.716;-122.060;2022-09-06T08:55:28;99088.38;;;32.16;14.88
51053;BME280;37093;37.716;-122.060;2022-09-06T08:58:07;99092.00;;;31.77;14.74
51053;BME280;37093;37.716;-122.060;2022-09-06T09:00:38;99093.06;;;32.06;14.88
51053;BME280;37093;37.716;-122.060;2022-09-06T09:03:13;99093.95;;;31.88;15.53
51053;BME280;37093;37.716;-122.060;2022-09-06T09:05:47;99097.47;;;31.77;15.61
51053;BME280;37093;37.716;-122.060;2022-09-06T09:08:22;99099.68;;;32.00;15.43
51053;BME280;37093;37.716;-122.060;2022-09-06T09:10:56;99096.22;;;31.97;15.04
51053;BME280;37093;37.716;-122.060;2022-09-06T09:13:32;99098.72;;;31.42;15.16
51053;BME280;37093;37.716;-122.060;2022-09-06T09:16:02;99100.60;;;31.74;15.25
51053;BME280;37093;37.716;-122.060;2022-09-06T09:18:34;99094.68;;;31.54;15.34
51053;BME280;37093;37.716;-122.060;2022-09-06T09:21:04;99091.67;;;31.37;15.34
51053;BME280;37093;37.716;-122.060;2022-09-06T09:23:32;99087.57;;;31.77;15.34
51053;BME280;37093;37.716;-122.060;2022-09-06T09:26:03;99086.28;;;31.79;15.29
51053;BME280;37093;37.716;-122.060;2022-09-06T09:28:33;99086.36;;;31.80;15.27
51053;BME280;37093;37.716;-122.060;2022-09-06T09:31:02;99082.37;;;31.75;15.10
51053;BME280;37093;37.716;-122.060;2022-09-06T09:33:33;99079.11;;;31.76;15.13
51053;BME280;37093;37.716;-122.060;2022-09-06T09:36:05;99077.87;;;31.75;15.24
51053;BME280;37093;37.716;-122.060;2022-09-06T09:38:40;99075.21;;;31.69;15.28
51053;BME280;37093;37.716;-122.060;2022-09-06T09:41:22;99074.96;;;31.62;15.08
51053;BME280;37093;37.716;-122.060;2022-09-06T09:43:56;99080.38;;;31.56;14.83
51053;BME280;37093;37.716;-122.060;2022-09-06T09:46:31;99081.86;;;31.33;14.83
51053;BME280;37093;37.716;-122.060;2022-09-06T09:49:02;99082.04;;;31.61;14.82
51053;BME280;37093;37.716;-122.060;2022-09-06T09:51:32;99083.42;;;31.48;14.77
51053;BME280;37093;37.716;-122.060;2022-09-06T09:54:03;99086.41;;;31.11;15.02
51053;BME280;37093;37.716;-122.060;2022-09-06T09:56:38;99083.69;;;31.38;14.99
51053;BME280;37093;37.716;-122.060;2022-09-06T09:59:18;99082.45;;;31.50;15.07
51053;BME280;37093;37.716;-122.060;2022-09-06T10:01:47;99083.03;;;31.45;14.96
51053;BME280;37093;37.716;-122.060;2022-09-06T10:04:20;99078.83;;;31.48;14.99
51053;BME280;37093;37.716;-122.060;2022-09-06T10:06:51;99078.55;;;31.36;14.90
51053;BME280;37093;37.716;-122.060;2022-09-06T10:09:21;99081.67;;;31.41;15.08
51053;BME280;37093;37.716;-122.060;2022-09-06T10:11:58;99080.22;;;31.35;14.95
51053;BME280;37093;37.716;-122.060;2022-09-06T10:14:29;99076.89;;;31.33;14.90
51053;BME280;37093;37.716;-122.060;2022-09-06T10:16:58;99077.27;;;31.28;14.84
51053;BME280;37093;37.716;-122.060;2022-09-06T10:19:38;99076.26;;;31.40;14.68
51053;BME280;37093;37.716;-122.060;2022-09-06T10:22:17;99073.74;;;31.16;14.49
51053;BME280;37093;37.716;-122.060;2022-09-06T10:25:04;99071.87;;;31.44;14.65
51053;BME280;37093;37.716;-122.060;2022-09-06T10:27:34;99067.50;;;31.27;14.61
51053;BME280;37093;37.716;-122.060;2022-09-06T10:30:07;99068.36;;;31.09;14.54
51053;BME280;37093;37.716;-122.060;2022-09-06T10:32:41;99070.76;;;30.86;14.53
51053;BME280;37093;37.716;-122.060;2022-09-06T10:35:14;99071.40;;;31.14;14.69
51053;BME280;37093;37.716;-122.060;2022-09-06T10:37:48;99070.28;;;31.11;14.66
51053;BME280;37093;37.716;-122.060;2022-09-06T10:40:28;99069.52;;;30.94;14.67
51053;BME280;37093;37.716;-122.060;2022-09-06T10:42:59;99065.31;;;31.17;14.94
51053;BME280;37093;37.716;-122.060;2022-09-06T10:45:37;99062.41;;;31.13;14.78
51053;BME280;37093;37.716;-122.060;2022-09-06T10:48:16;99059.65;;;31.08;14.85
51053;BME280;37093;37.716;-122.060;2022-09-06T10:50:50;99059.39;;;31.05;14.90
51053;BME280;37093;37.716;-122.060;2022-09-06T10:53:33;99062.32;;;31.22;14.72
51053;BME280;37093;37.716;-122.060;2022-09-06T10:56:05;99067.36;;;30.98;14.68
51053;BME280;37093;37.716;-122.060;2022-09-06T10:58:44;99066.49;;;30.89;14.94
51053;BME280;37093;37.716;-122.060;2022-09-06T11:01:24;99068.76;;;31.11;14.87
51053;BME280;37093;37.716;-122.060;2022-09-06T11:03:58;99068.04;;;30.82;14.87
51053;BME280;37093;37.716;-122.060;2022-09-06T11:06:31;99066.57;;;31.02;14.68
51053;BME280;37093;37.716;-122.060;2022-09-06T11:09:08;99064.07;;;30.97;14.81
51053;BME280;37093;37.716;-122.060;2022-09-06T11:11:41;99064.27;;;30.73;14.52
51053;BME280;37093;37.716;-122.060;2022-09-06T11:14:13;99065.30;;;30.97;14.51
51053;BME280;37093;37.716;-122.060;2022-09-06T11:16:47;99069.96;;;30.74;14.54
51053;BME280;37093;37.716;-122.060;2022-09-06T11:19:20;99070.13;;;30.73;14.49
51053;BME280;37093;37.716;-122.060;2022-09-06T11:22:07;99074.40;;;31.15;14.40
51053;BME280;37093;37.716;-122.060;2022-09-06T11:24:52;99072.39;;;31.20;14.64
51053;BME280;37093;37.716;-122.060;2022-09-06T11:27:32;99072.02;;;30.93;14.55
51053;BME280;37093;37.716;-122.060;2022-09-06T11:30:04;99070.56;;;30.84;14.39
51053;BME280;37093;37.716;-122.060;2022-09-06T11:32:37;99070.32;;;30.87;14.40
51053;BME280;37093;37.716;-122.060;2022-09-06T11:35:08;99068.91;;;30.96;14.90
51053;BME280;37093;37.716;-122.060;2022-09-06T11:37:40;99070.20;;;31.20;14.61
51053;BME280;37093;37.716;-122.060;2022-09-06T11:40:15;99074.92;;;30.92;14.90
51053;BME280;37093;37.716;-122.060;2022-09-06T11:43:40;99073.76;;;30.91;14.57
51053;BME280;37093;37.716;-122.060;2022-09-06T11:46:09;99079.08;;;30.65;14.59
51053;BME280;37093;37.716;-122.060;2022-09-06T11:48:59;99080.71;;;30.89;14.60
51053;BME280;37093;37.716;-122.060;2022-09-06T11:51:34;99082.92;;;31.14;14.62
51053;BME280;37093;37.716;-122.060;2022-09-06T11:54:15;99082.28;;;31.09;14.66
51053;BME280;37093;37.716;-122.060;2022-09-06T11:56:53;99082.98;;;30.78;14.48
51053;BME280;37093;37.716;-122.060;2022-09-06T11:59:33;99082.13;;;30.99;14.40
51053;BME280;37093;37.716;-122.060;2022-09-06T12:02:05;99085.84;;;30.87;14.52
51053;BME280;37093;37.716;-122.060;2022-09-06T12:05:24;99086.58;;;30.84;14.28
51053;BME280;37093;37.716;-122.060;2022-09-06T12:08:59;99092.36;;;30.91;14.55
51053;BME280;37093;37.716;-122.060;2022-09-06T12:11:33;99093.89;;;30.64;14.47
51053;BME280;37093;37.716;-122.060;2022-09-06T12:14:05;99093.92;;;30.72;14.44
51053;BME280;37093;37.716;-122.060;2022-09-06T12:17:46;99094.31;;;30.90;14.74
51053;BME280;37093;37.716;-122.060;2022-09-06T12:21:00;99100.06;;;30.64;14.66
51053;BME280;37093;37.716;-122.060;2022-09-06T12:23:45;99103.91;;;30.64;14.63
51053;BME280;37093;37.716;-122.060;2022-09-06T12:26:44;99106.86;;;30.93;14.42
51053;BME280;37093;37.716;-122.060;2022-09-06T12:29:13;99112.47;;;30.59;14.44
51053;BME280;37093;37.716;-122.060;2022-09-06T12:31:43;99119.45;;;30.60;14.03
51053;BME280;37093;37.716;-122.060;2022-09-06T12:34:18;99123.09;;;30.84;14.20
51053;BME280;37093;37.716;-122.060;2022-09-06T12:36:52;99130.03;;;30.82;14.55
51053;BME280;37093;37.716;-122.060;2022-09-06T12:39:21;99134.83;;;30.81;15.12
51053;BME280;37093;37.716;-122.060;2022-09-06T12:41:53;99137.14;;;30.82;14.79
51053;BME280;37093;37.716;-122.060;2022-09-06T12:44:30;99133.56;;;30.49;14.93
51053;BME280;37093;37.716;-122.060;2022-09-06T12:47:03;99128.07;;;30.72;14.73
51053;BME280;37093;37.716;-122.060;2022-09-06T12:49:33;99130.25;;;30.69;13.78
51053;BME280;37093;37.716;-122.060;2022-09-06T12:52:11;99136.79;;;30.64;14.23
51053;BME280;37093;37.716;-122.060;2022-09-06T12:54:46;99137.80;;;30.62;15.06
51053;BME280;37093;37.716;-122.060;2022-09-06T12:57:19;99135.91;;;30.66;14.68
51053;BME280;37093;37.716;-122.060;2022-09-06T12:59:51;99137.63;;;30.63;14.71
51053;BME280;37093;37.716;-122.060;2022-09-06T13:02:25;99146.27;;;30.66;14.15
51053;BME280;37093;37.716;-122.060;2022-09-06T13:05:00;99147.28;;;30.34;14.86
51053;BME280;37093;37.716;-122.060;2022-09-06T13:07:29;99146.93;;;30.59;14.75
51053;BME280;37093;37.716;-122.060;2022-09-06T13:10:02;99145.48;;;30.55;14.31
51053;BME280;37093;37.716;-122.060;2022-09-06T13:12:32;99147.78;;;30.80;14.63
51053;BME280;37093;37.716;-122.060;2022-09-06T13:15:06;99152.08;;;30.57;14.69
51053;BME280;37093;37.716;-122.060;2022-09-06T13:17:35;99155.90;;;30.54;14.93
51053;BME280;37093;37.716;-122.060;2022-09-06T13:20:11;99160.62;;;30.52;14.93
51053;BME280;37093;37.716;-122.060;2022-09-06T13:22:43;99167.48;;;30.56;14.48
51053;BME280;37093;37.716;-122.060;2022-09-06T13:25:22;99162.81;;;30.23;14.12
51053;BME280;37093;37.716;-122.060;2022-09-06T13:27:51;99159.77;;;30.50;13.79
51053;BME280;37093;37.716;-122.060;2022-09-06T13:30:38;99158.52;;;30.43;13.98
51053;BME280;37093;37.716;-122.060;2022-09-06T13:33:21;99165.74;;;30.04;14.65
51053;BME280;37093;37.716;-122.060;2022-09-06T13:35:51;99166.95;;;30.55;14.54
51053;BME280;37093;37.716;-122.060;2022-09-06T13:38:33;99166.35;;;30.74;14.33
51053;BME280;37093;37.716;-122.060;2022-09-06T13:41:06;99168.82;;;30.20;14.51
51053;BME280;37093;37.716;-122.060;2022-09-06T13:44:00;99173.54;;;30.46;14.31
51053;BME280;37093;37.716;-122.060;2022-09-06T13:46:30;99175.75;;;30.41;14.60
51053;BME280;37093;37.716;-122.060;2022-09-06T13:48:58;99177.10;;;30.35;14.43
51053;BME280;37093;37.716;-122.060;2022-09-06T13:51:27;99175.08;;;30.33;14.34
51053;BME280;37093;37.716;-122.060;2022-09-06T13:54:04;99179.23;;;30.26;14.38
51053;BME280;37093;37.716;-122.060;2022-09-06T13:56:33;99174.93;;;30.34;14.71
51053;BME280;37093;37.716;-122.060;2022-09-06T13:59:02;99176.52;;;30.31;14.42
51053;BME280;37093;37.716;-122.060;2022-09-06T14:01:32;99174.43;;;30.36;14.65
51053;BME280;37093;37.716;-122.060;2022-09-06T14:04:01;99176.34;;;30.37;14.65
51053;BME280;37093;37.716;-122.060;2022-09-06T14:06:29;99178.07;;;30.18;14.55
51053;BME280;37093;37.716;-122.060;2022-09-06T14:08:57;99175.87;;;30.48;14.60
51053;BME280;37093;37.716;-122.060;2022-09-06T14:11:28;99172.23;;;30.47;14.75
51053;BME280;37093;37.716;-122.060;2022-09-06T14:13:56;99174.62;;;30.45;14.96
51053;BME280;37093;37.716;-122.060;2022-09-06T14:16:25;99184.66;;;30.07;15.15
51053;BME280;37093;37.716;-122.060;2022-09-06T14:18:53;99182.06;;;30.47;15.19
51053;BME280;37093;37.716;-122.060;2022-09-06T14:21:22;99181.55;;;30.60;15.24
51053;BME280;37093;37.716;-122.060;2022-09-06T14:23:51;99185.19;;;30.59;15.24
51053;BME280;37093;37.716;-122.060;2022-09-06T14:26:21;99189.09;;;30.68;15.37
51053;BME280;37093;37.716;-122.060;2022-09-06T14:28:50;99191.39;;;30.69;15.49
51053;BME280;37093;37.716;-122.060;2022-09-06T14:31:20;99196.85;;;30.71;15.41
51053;BME280;37093;37.716;-122.060;2022-09-06T14:33:49;99203.37;;;30.71;15.59
51053;BME280;37093;37.716;-122.060;2022-09-06T14:36:19;99208.99;;;30.71;15.72
51053;BME280;37093;37.716;-122.060;2022-09-06T14:38:48;99211.90;;;30.73;16.20
51053;BME280;37093;37.716;-122.060;2022-09-06T14:41:18;99214.62;;;30.73;15.88
51053;BME280;37093;37.716;-122.060;2022-09-06T14:43:50;99219.86;;;30.68;16.11
51053;BME280;37093;37.716;-122.060;2022-09-06T14:46:20;99225.35;;;30.74;16.89
51053;BME280;37093;37.716;-122.060;2022-09-06T14:48:54;99223.76;;;30.81;16.36
51053;BME280;37093;37.716;-122.060;2022-09-06T14:51:23;99223.50;;;30.78;16.69
51053;BME280;37093;37.716;-122.060;2022-09-06T14:53:54;99228.49;;;30.59;17.29
51053;BME280;37093;37.716;-122.060;2022-09-06T14:56:23;99229.84;;;30.90;16.50
51053;BME280;37093;37.716;-122.060;2022-09-06T14:58:51;99234.09;;;31.04;16.68
51053;BME280;37093;37.716;-122.060;2022-09-06T15:01:22;99237.30;;;30.66;17.71
51053;BME280;37093;37.716;-122.060;2022-09-06T15:03:53;99238.26;;;31.06;18.25
51053;BME280;37093;37.716;-122.060;2022-09-06T15:06:23;99233.76;;;30.82;17.04
51053;BME280;37093;37.716;-122.060;2022-09-06T15:08:52;99237.27;;;31.24;18.70
51053;BME280;37093;37.716;-122.060;2022-09-06T15:11:31;99238.02;;;31.50;18.62
51053;BME280;37093;37.716;-122.060;2022-09-06T15:13:59;99236.67;;;31.80;18.47
51053;BME280;37093;37.716;-122.060;2022-09-06T15:16:29;99236.07;;;31.62;19.59
51053;BME280;37093;37.716;-122.060;2022-09-06T15:18:57;99233.48;;;32.19;18.94
51053;BME280;37093;37.716;-122.060;2022-09-06T15:21:25;99228.09;;;31.87;16.48
51053;BME280;37093;37.716;-122.060;2022-09-06T15:23:54;99226.34;;;32.28;15.98
51053;BME280;37093;37.716;-122.060;2022-09-06T15:26:22;99222.39;;;32.71;18.56
51053;BME280;37093;37.716;-122.060;2022-09-06T15:28:51;99225.96;;;32.75;18.06
51053;BME280;37093;37.716;-122.060;2022-09-06T15:31:19;99224.05;;;32.87;17.07
51053;BME280;37093;37.716;-122.060;2022-09-06T15:33:50;99225.92;;;33.20;16.99
51053;BME280;37093;37.716;-122.060;2022-09-06T15:36:19;99222.75;;;33.16;16.18
51053;BME280;37093;37.716;-122.060;2022-09-06T15:38:49;99218.66;;;33.32;15.74
51053;BME280;37093;37.716;-122.060;2022-09-06T15:41:19;99218.18;;;33.72;16.87
51053;BME280;37093;37.716;-122.060;2022-09-06T15:43:50;99218.07;;;33.99;16.18
51053;BME280;37093;37.716;-122.060;2022-09-06T15:46:31;99223.69;;;33.63;16.55
51053;BME280;37093;37.716;-122.060;2022-09-06T15:49:08;99227.01;;;34.10;16.55
51053;BME280;37093;37.716;-122.060;2022-09-06T15:51:38;99226.25;;;34.16;14.91
51053;BME280;37093;37.716;-122.060;2022-09-06T15:54:08;99228.66;;;34.65;14.73
51053;BME280;37093;37.716;-122.060;2022-09-06T15:56:36;99232.51;;;34.41;14.96
51053;BME280;37093;37.716;-122.060;2022-09-06T15:59:05;99234.40;;;35.06;15.74
51053;BME280;37093;37.716;-122.060;2022-09-06T16:01:33;99235.28;;;35.19;14.50
51053;BME280;37093;37.716;-122.060;2022-09-06T16:04:03;99232.81;;;35.14;15.11
51053;BME280;37093;37.716;-122.060;2022-09-06T16:06:34;99239.23;;;35.53;14.98
51053;BME280;37093;37.716;-122.060;2022-09-06T16:09:05;99241.58;;;35.56;15.85
51053;BME280;37093;37.716;-122.060;2022-09-06T16:11:35;99234.12;;;36.10;14.30
51053;BME280;37093;37.716;-122.060;2022-09-06T16:14:04;99233.72;;;36.08;13.50
51053;BME280;37093;37.716;-122.060;2022-09-06T16:16:33;99232.70;;;36.30;14.73
51053;BME280;37093;37.716;-122.060;2022-09-06T16:19:01;99230.27;;;36.61;13.32
51053;BME280;37093;37.716;-122.060;2022-09-06T16:21:31;99233.55;;;36.84;13.82
51053;BME280;37093;37.716;-122.060;2022-09-06T16:24:01;99231.36;;;37.25;13.43
51053;BME280;37093;37.716;-122.060;2022-09-06T16:26:32;99229.05;;;37.24;13.97
51053;BME280;37093;37.716;-122.060;2022-09-06T16:29:01;99226.90;;;37.41;13.21
51053;BME280;37093;37.716;-122.060;2022-09-06T16:31:31;99229.96;;;37.63;13.51
51053;BME280;37093;37.716;-122.060;2022-09-06T16:33:59;99236.60;;;37.79;12.68
51053;BME280;37093;37.716;-122.060;2022-09-06T16:36:28;99240.08;;;38.03;12.09
51053;BME280;37093;37.716;-122.060;2022-09-06T16:38:56;99240.57;;;38.43;12.64
51053;BME280;37093;37.716;-122.060;2022-09-06T16:41:26;99242.37;;;38.43;12.56
51053;BME280;37093;37.716;-122.060;2022-09-06T16:43:55;99241.46;;;38.50;14.76
51053;BME280;37093;37.716;-122.060;2022-09-06T16:46:25;99241.03;;;39.07;12.82
51053;BME280;37093;37.716;-122.060;2022-09-06T16:48:55;99242.41;;;38.79;13.53
51053;BME280;37093;37.716;-122.060;2022-09-06T16:51:25;99243.59;;;39.10;12.56
51053;BME280;37093;37.716;-122.060;2022-09-06T16:53:54;99243.78;;;39.36;12.90
51053;BME280;37093;37.716;-122.060;2022-09-06T16:56:25;99246.50;;;39.13;11.32
51053;BME280;37093;37.716;-122.060;2022-09-06T16:58:56;99250.65;;;39.70;10.99
51053;BME280;37093;37.716;-122.060;2022-09-06T17:01:26;99253.23;;;39.73;11.94
51053;BME280;37093;37.716;-122.060;2022-09-06T17:03:55;99256.84;;;39.70;10.44
51053;BME280;37093;37.716;-122.060;2022-09-06T17:06:24;99254.36;;;39.93;11.31
51053;BME280;37093;37.716;-122.060;2022-09-06T17:08:52;99252.82;;;40.10;11.79
51053;BME280;37093;37.716;-122.060;2022-09-06T17:11:22;99243.58;;;40.29;11.81
51053;BME280;37093;37.716;-122.060;2022-09-06T17:13:52;99232.80;;;40.45;13.05
51053;BME280;37093;37.716;-122.060;2022-09-06T17:16:21;99219.80;;;40.62;11.25
51053;BME280;37093;37.716;-122.060;2022-09-06T17:18:50;99211.49;;;40.76;12.34
51053;BME280;37093;37.716;-122.060;2022-09-06T17:21:20;99211.60;;;40.77;10.74
51053;BME280;37093;37.716;-122.060;2022-09-06T17:23:50;99216.92;;;41.13;10.10
51053;BME280;37093;37.716;-122.060;2022-09-06T17:26:20;99228.77;;;41.29;11.91
51053;BME280;37093;37.716;-122.060;2022-09-06T17:28:49;99232.16;;;41.03;10.23
51053;BME280;37093;37.716;-122.060;2022-09-06T17:31:19;99234.49;;;41.57;10.98
51053;BME280;37093;37.716;-122.060;2022-09-06T17:33:48;99238.89;;;41.49;11.08
51053;BME280;37093;37.716;-122.060;2022-09-06T17:36:18;99246.49;;;41.66;11.52
51053;BME280;37093;37.716;-122.060;2022-09-06T17:38:47;99249.84;;;41.75;12.45
51053;BME280;37093;37.716;-122.060;2022-09-06T17:41:19;99255.61;;;41.88;12.40
51053;BME280;37093;37.716;-122.060;2022-09-06T17:43:48;99258.27;;;41.99;12.46
51053;BME280;37093;37.716;-122.060;2022-09-06T17:46:16;99246.39;;;42.16;12.60
51053;BME280;37093;37.716;-122.060;2022-09-06T17:48:45;99233.97;;;42.30;11.95
51053;BME280;37093;37.716;-122.060;2022-09-06T17:51:13;99219.57;;;42.36;11.95
51053;BME280;37093;37.716;-122.060;2022-09-06T17:53:42;99202.70;;;42.43;11.51
51053;BME280;37093;37.716;-122.060;2022-09-06T17:56:13;99191.69;;;42.10;12.60
51053;BME280;37093;37.716;-122.060;2022-09-06T17:58:50;99177.29;;;41.95;12.60
51053;BME280;37093;37.716;-122.060;2022-09-06T18:01:19;99168.88;;;42.21;13.41
51053;BME280;37093;37.716;-122.060;2022-09-06T18:03:48;99158.90;;;42.51;11.07
51053;BME280;37093;37.716;-122.060;2022-09-06T18:06:19;99159.41;;;42.53;11.58
51053;BME280;37093;37.716;-122.060;2022-09-06T18:08:49;99165.02;;;42.85;11.91
51053;BME280;37093;37.716;-122.060;2022-09-06T18:11:20;99171.22;;;42.82;13.60
51053;BME280;37093;37.716;-122.060;2022-09-06T18:13:56;99177.09;;;43.00;13.55
51053;BME280;37093;37.716;-122.060;2022-09-06T18:16:26;99172.75;;;43.42;13.24
51053;BME280;37093;37.716;-122.060;2022-09-06T18:18:56;99169.87;;;43.40;11.58
51053;BME280;37093;37.716;-122.060;2022-09-06T18:21:26;99166.78;;;43.73;11.14
51053;BME280;37093;37.716;-122.060;2022-09-06T18:23:54;99171.70;;;43.80;10.21
51053;BME280;37093;37.716;-122.060;2022-09-06T18:26:23;99179.54;;;44.07;13.86
51053;BME280;37093;37.716;-122.060;2022-09-06T18:28:52;99185.07;;;44.13;11.97
51053;BME280;37093;37.716;-122.060;2022-09-06T18:31:22;99179.74;;;44.07;10.51
51053;BME280;37093;37.716;-122.060;2022-09-06T18:33:51;99176.72;;;43.98;11.11
51053;BME280;37093;37.716;-122.060;2022-09-06T18:36:19;99176.58;;;43.87;12.09
51053;BME280;37093;37.716;-122.060;2022-09-06T18:38:47;99171.95;;;44.27;12.25
51053;BME280;37093;37.716;-122.060;2022-09-06T18:41:16;99169.92;;;44.36;13.58
51053;BME280;37093;37.716;-122.060;2022-09-06T18:43:44;99167.17;;;43.97;13.40
51053;BME280;37093;37.716;-122.060;2022-09-06T18:46:13;99171.27;;;44.72;12.12
51053;BME280;37093;37.716;-122.060;2022-09-06T18:48:41;99174.13;;;44.71;10.69
51053;BME280;37093;37.716;-122.060;2022-09-06T18:51:11;99174.71;;;44.81;11.19
51053;BME280;37093;37.716;-122.060;2022-09-06T18:53:42;99173.38;;;44.85;12.32
51053;BME280;37093;37.716;-122.060;2022-09-06T18:56:11;99178.14;;;44.84;12.46
51053;BME280;37093;37.716;-122.060;2022-09-06T18:58:40;99180.48;;;44.82;12.50
51053;BME280;37093;37.716;-122.060;2022-09-06T19:01:11;99178.69;;;44.93;11.06
51053;BME280;37093;37.716;-122.060;2022-09-06T19:03:40;99176.61;;;44.78;12.48
51053;BME280;37093;37.716;-122.060;2022-09-06T19:06:11;99171.64;;;45.07;11.06
51053;BME280;37093;37.716;-122.060;2022-09-06T19:08:40;99170.63;;;45.31;10.75
51053;BME280;37093;37.716;-122.060;2022-09-06T19:11:11;99171.48;;;45.30;11.65
51053;BME280;37093;37.716;-122.060;2022-09-06T19:13:40;99174.58;;;45.49;11.67
51053;BME280;37093;37.716;-122.060;2022-09-06T19:16:11;99171.29;;;45.31;11.68
51053;BME280;37093;37.716;-122.060;2022-09-06T19:18:40;99178.40;;;45.53;10.47
51053;BME280;37093;37.716;-122.060;2022-09-06T19:21:10;99177.11;;;45.27;12.00
51053;BME280;37093;37.716;-122.060;2022-09-06T19:23:40;99174.62;;;45.08;10.81
51053;BME280;37093;37.716;-122.060;2022-09-06T19:26:11;99182.02;;;45.38;11.92
51053;BME280;37093;37.716;-122.060;2022-09-06T19:28:39;99182.71;;;44.80;11.59
51053;BME280;37093;37.716;-122.060;2022-09-06T19:31:09;99173.64;;;44.89;11.73
51053;BME280;37093;37.716;-122.060;2022-09-06T19:33:38;99176.36;;;44.85;10.79
51053;BME280;37093;37.716;-122.060;2022-09-06T19:36:07;99174.55;;;44.67;11.46
51053;BME280;37093;37.716;-122.060;2022-09-06T19:38:36;99181.28;;;44.82;10.60
51053;BME280;37093;37.716;-122.060;2022-09-06T19:41:06;99191.00;;;44.44;11.99
51053;BME280;37093;37.716;-122.060;2022-09-06T19:43:35;99191.34;;;44.48;11.62
51053;BME280;37093;37.716;-122.060;2022-09-06T19:46:04;99195.24;;;44.70;11.46
51053;BME280;37093;37.716;-122.060;2022-09-06T19:48:35;99190.02;;;44.61;11.25
51053;BME280;37093;37.716;-122.060;2022-09-06T19:51:06;99188.94;;;44.01;10.69
51053;BME280;37093;37.716;-122.060;2022-09-06T19:53:36;99194.54;;;44.27;10.76
51053;BME280;37093;37.716;-122.060;2022-09-06T19:56:09;99189.46;;;44.13;11.63
51053;BME280;37093;37.716;-122.060;2022-09-06T19:58:38;99193.52;;;43.98;11.40